Wilkes Barre Scranton International Airport
KAVP : now visible

Airfield :











YOU CAN JOIN US ON...

 
LOGIN :

Register | Disclaimer

   EN    FR    IT 

 









Legend :    VFR   Marginal VFR   IFR   Intensive IFR   Very Intensive IFR
Visi :
Ceiling :
>= 8 km
>= 3000ft
5 to 8 km
1000 to 3000 ft
1500m to 5 km
500 to 1000 ft
800 to 1500m
200 to 500 ft
< 800m
< 200 ft
Symbols :   Thunderstorms  Fog  Heavy snow  Heavy precipitations  Wind > 20 kt






- Airport Elevation : 962 ft
- IATA code : AVP


KAVP - Wilkes Barre Scranton International

CURRENT METAR :
  • 032054Z 29010KT 10SM CLR 28/10 A3007 RMK AO2 SLP175 T02780100 58003 $

EXPIRED METARs :
  • 031954Z 32008G16KT 10SM CLR 28/11 A3008 RMK AO2 SLP178 T02780106 $
  • 031854Z 33010KT 10SM CLR 28/11 A3008 RMK AO2 SLP175 T02780106 $

TAF KAVP
Valid from the 03 at 18:00 until the 04 at 18:00 UTC


031722Z 0318/0418 31009G15KT P6SM FEW200
FM040000 00000KT P6SM SKC
FM041600 29007KT P6SM FEW070
KZNY FIR / North America



MET'MAP, your aeronautical weather chart ! - Copyright ORBIFLY December 2007 - Disclaimer

ORBIFLY MET'MAP TEAM :

Programming & Development : Alexandra Zaïnal
Original concept : Baudouin d'Aumeries
Technical & hardware support : Manuel Goepfert
Assistance : Marc-Olivier Méhu




SOURCES & CREDITS :

   NOAA       Earth
Advisory